Time;durP1;ratioP1;P1;durP2;ratioP2;P2;SDS_P1;SDS_P2;PMS_P1;PMS_P2;Temp;Humidity;BMP_temperature;BMP_pressure;BME280_temperature;BME280_humidity;BME280_pressure;Samples;Min_cycle;Max_cycle;Signal;HPM_P1;HPM_P2
2023/09/01 00:02:28;;;;;;;4.40;4.13;;;11.70;78.50;;;;;;6206724;28;20274;-87
2023/09/01 00:05:34;;;;;;;3.70;3.60;;;11.70;78.70;;;;;;6196826;28;20231;-85
2023/09/01 00:08:38;;;;;;;4.30;4.00;;;11.70;78.70;;;;;;6214314;28;20718;-84
2023/09/01 00:11:41;;;;;;;3.73;3.63;;;11.60;78.70;;;;;;6206172;28;20738;-84
2023/09/01 00:14:46;;;;;;;3.93;3.83;;;11.50;78.70;;;;;;6206272;28;20758;-86
2023/09/01 00:17:49;;;;;;;3.80;3.70;;;11.50;78.90;;;;;;6203856;28;20244;-87
2023/09/01 00:20:58;;;;;;;3.60;3.50;;;11.50;78.90;;;;;;6214410;28;20243;-85
2023/09/01 00:24:03;;;;;;;3.47;3.37;;;11.50;78.90;;;;;;6205476;28;20236;-86
2023/09/01 00:27:06;;;;;;;3.10;3.00;;;11.50;78.70;;;;;;6206580;28;20232;-85
2023/09/01 00:30:11;;;;;;;3.83;3.83;;;11.50;78.90;;;;;;6196408;28;20875;-85
2023/09/01 00:33:14;;;;;;;3.53;3.53;;;11.50;78.90;;;;;;6197947;28;20227;-85
2023/09/01 00:36:17;;;;;;;3.47;3.37;;;11.50;78.90;;;;;;6209110;28;20239;-86
2023/09/01 00:39:22;;;;;;;3.57;3.47;;;11.50;79.00;;;;;;6208413;28;20723;-85
2023/09/01 00:42:27;;;;;;;4.50;4.30;;;11.50;79.10;;;;;;6200531;28;20734;-86
2023/09/01 00:45:30;;;;;;;4.23;4.03;;;11.40;79.20;;;;;;6212429;28;20227;-83
2023/09/01 00:48:34;;;;;;;3.50;3.30;;;11.40;79.20;;;;;;6197153;28;20264;-86
2023/09/01 00:51:37;;;;;;;3.70;3.50;;;11.40;79.00;;;;;;6212164;28;20878;-84
2023/09/01 00:54:42;;;;;;;4.10;3.73;;;11.50;78.90;;;;;;6204702;28;20271;-86
2023/09/01 00:57:46;;;;;;;3.80;3.60;;;11.40;79.00;;;;;;6214353;28;20255;-88
2023/09/01 01:00:52;;;;;;;3.87;3.77;;;11.40;79.10;;;;;;6202652;28;20322;-86
2023/09/01 01:03:55;;;;;;;4.27;4.07;;;11.40;79.10;;;;;;6212799;28;20462;-84
2023/09/01 01:07:08;;;;;;;3.67;3.67;;;11.30;79.30;;;;;;6203197;28;20320;-84
2023/09/01 01:10:19;;;;;;;4.20;3.67;;;11.30;79.20;;;;;;6207325;28;20235;-86
2023/09/01 01:13:24;;;;;;;3.93;3.73;;;11.30;79.10;;;;;;6208040;28;20243;-85
2023/09/01 01:16:29;;;;;;;4.30;4.03;;;11.40;79.20;;;;;;6210392;28;20240;-86
2023/09/01 01:19:43;;;;;;;4.17;4.00;;;11.30;79.20;;;;;;6204727;28;20252;-86
2023/09/01 01:23:01;;;;;;;4.20;3.90;;;11.30;79.40;;;;;;6189265;28;20224;-82
2023/09/01 01:26:05;;;;;;;4.33;4.13;;;11.30;79.50;;;;;;6204480;28;20231;-87
2023/09/01 01:29:08;;;;;;;4.70;4.30;;;11.20;79.50;;;;;;6212479;28;20270;-85
2023/09/01 01:32:12;;;;;;;5.73;5.53;;;11.20;79.40;;;;;;6206360;28;20243;-86
2023/09/01 01:35:24;;;;;;;4.30;4.10;;;11.20;79.50;;;;;;6210990;28;20242;-84
2023/09/01 01:38:32;;;;;;;3.80;3.70;;;11.30;79.40;;;;;;6198051;28;20239;-86
2023/09/01 01:41:41;;;;;;;4.20;3.90;;;11.20;79.50;;;;;;6210117;28;20928;-87
2023/09/01 01:44:50;;;;;;;4.30;4.20;;;11.10;79.60;;;;;;6204943;28;20247;-84
2023/09/01 01:47:55;;;;;;;5.00;4.67;;;11.10;79.60;;;;;;6196386;28;20291;-87
2023/09/01 01:50:58;;;;;;;4.60;4.43;;;11.10;79.70;;;;;;6204225;28;20724;-86
2023/09/01 01:54:03;;;;;;;4.80;4.60;;;11.00;79.90;;;;;;6203895;28;20314;-84
2023/09/01 01:57:10;;;;;;;4.60;4.40;;;11.00;80.10;;;;;;6200783;28;20242;-86
2023/09/01 02:00:14;;;;;;;4.07;3.97;;;10.90;80.00;;;;;;6204541;28;20310;-86
2023/09/01 02:03:18;;;;;;;4.30;3.97;;;10.90;80.00;;;;;;6206246;28;20322;-85
2023/09/01 02:06:21;;;;;;;4.90;4.20;;;10.90;79.90;;;;;;6204768;28;20234;-86
2023/09/01 02:09:26;;;;;;;4.27;4.10;;;11.00;80.00;;;;;;6212671;28;20231;-84
2023/09/01 02:12:30;;;;;;;3.97;3.87;;;11.00;79.80;;;;;;6202303;28;20227;-84
2023/09/01 02:15:33;;;;;;;3.60;3.50;;;11.00;79.80;;;;;;6205534;28;20369;-83
2023/09/01 02:18:38;;;;;;;3.87;3.77;;;10.90;79.70;;;;;;6204913;28;20391;-86
2023/09/01 02:21:41;;;;;;;3.47;3.37;;;10.90;79.80;;;;;;6205946;28;20244;-85
2023/09/01 02:24:46;;;;;;;4.47;4.17;;;10.90;79.80;;;;;;6193701;28;20243;-85
2023/09/01 02:27:49;;;;;;;4.40;4.20;;;10.90;79.80;;;;;;6202732;28;20279;-87
2023/09/01 02:30:52;;;;;;;4.00;3.70;;;10.80;79.80;;;;;;6209694;28;20294;-85
2023/09/01 02:33:55;;;;;;;5.73;5.27;;;10.80;80.00;;;;;;6208033;28;20297;-84
2023/09/01 02:36:59;;;;;;;5.40;5.10;;;10.70;80.30;;;;;;6202467;28;20369;-84
2023/09/01 02:40:10;;;;;;;4.33;4.23;;;10.70;80.20;;;;;;6215823;28;20658;-85
2023/09/01 02:43:14;;;;;;;3.93;3.83;;;10.70;80.20;;;;;;6211153;28;20312;-85
2023/09/01 02:46:17;;;;;;;4.67;4.50;;;10.70;80.10;;;;;;6209885;28;20324;-86
2023/09/01 02:49:23;;;;;;;4.60;4.50;;;10.70;80.10;;;;;;6216350;28;20231;-87
2023/09/01 02:52:26;;;;;;;4.70;4.50;;;10.60;80.20;;;;;;6215035;28;20238;-85
2023/09/01 02:55:31;;;;;;;4.90;4.70;;;10.60;80.20;;;;;;6214495;28;20259;-87
2023/09/01 02:58:37;;;;;;;4.40;4.20;;;10.60;80.10;;;;;;6217596;28;20247;-85
2023/09/01 03:01:40;;;;;;;4.57;4.40;;;10.60;80.10;;;;;;6215050;28;20242;-87
2023/09/01 03:04:49;;;;;;;4.20;4.10;;;10.60;80.20;;;;;;6207777;28;20395;-83
2023/09/01 03:07:53;;;;;;;4.23;4.20;;;10.50;80.20;;;;;;6216116;28;20236;-84
2023/09/01 03:10:58;;;;;;;4.60;4.30;;;10.50;80.20;;;;;;6192808;28;21031;-86
2023/09/01 03:14:05;;;;;;;4.50;4.30;;;10.50;80.20;;;;;;6205142;28;20232;-86
2023/09/01 03:17:08;;;;;;;4.63;4.37;;;10.50;80.20;;;;;;6193690;28;20282;-86
2023/09/01 03:20:12;;;;;;;4.70;4.60;;;10.50;80.20;;;;;;6192009;28;20599;-85
2023/09/01 03:23:15;;;;;;;4.40;4.20;;;10.40;80.20;;;;;;6184205;28;20248;-86
2023/09/01 03:26:22;;;;;;;5.03;4.83;;;10.40;80.20;;;;;;6184783;28;20274;-87
2023/09/01 03:29:25;;;;;;;5.20;5.00;;;10.40;80.40;;;;;;6189716;28;20232;-89
2023/09/01 03:32:30;;;;;;;5.43;5.00;;;10.40;80.40;;;;;;6179501;28;20250;-85
2023/09/01 03:35:33;;;;;;;5.17;4.97;;;10.40;80.50;;;;;;6177679;28;20239;-86
2023/09/01 03:38:37;;;;;;;5.30;4.93;;;10.30;80.70;;;;;;6197233;28;22465;-83
2023/09/01 03:41:42;;;;;;;5.67;5.17;;;10.30;80.60;;;;;;6193656;28;20244;-85
2023/09/01 03:44:45;;;;;;;5.30;5.10;;;10.30;80.50;;;;;;6194990;28;20252;-85
2023/09/01 03:47:48;;;;;;;5.23;5.07;;;10.30;80.70;;;;;;6194567;28;20735;-83
2023/09/01 03:51:06;;;;;;;5.67;5.37;;;10.20;80.70;;;;;;6184049;28;20308;-85
2023/09/01 03:54:09;;;;;;;5.20;5.00;;;10.30;80.70;;;;;;6188048;28;20299;-85
2023/09/01 03:57:15;;;;;;;5.60;5.30;;;10.30;80.70;;;;;;6193280;28;20348;-85
2023/09/01 04:00:19;;;;;;;5.47;5.27;;;10.30;80.50;;;;;;6199087;28;20241;-84
2023/09/01 04:03:22;;;;;;;5.90;5.70;;;10.30;80.50;;;;;;6187580;28;20307;-83
2023/09/01 04:06:26;;;;;;;6.83;6.37;;;10.20;80.70;;;;;;6203915;28;20250;-85
2023/09/01 04:09:29;;;;;;;6.07;5.87;;;10.20;80.60;;;;;;6193563;28;20260;-86
2023/09/01 04:12:34;;;;;;;6.53;6.20;;;10.20;80.60;;;;;;6180982;28;20653;-86
2023/09/01 04:15:37;;;;;;;6.10;5.90;;;10.20;80.60;;;;;;6187018;28;20256;-86
2023/09/01 04:18:40;;;;;;;6.50;6.10;;;10.10;80.70;;;;;;6201000;28;20244;-85
2023/09/01 04:21:43;;;;;;;6.37;6.07;;;10.10;80.80;;;;;;6188644;28;20281;-86
2023/09/01 04:24:46;;;;;;;7.03;6.63;;;10.10;80.90;;;;;;6191897;28;20241;-85
2023/09/01 04:27:51;;;;;;;7.17;6.77;;;10.00;81.10;;;;;;6187459;28;20359;-88
2023/09/01 04:30:54;;;;;;;6.40;6.00;;;10.00;81.20;;;;;;6185480;28;20236;-86
2023/09/01 04:33:58;;;;;;;6.47;6.20;;;10.00;81.20;;;;;;6184997;28;20733;-83
2023/09/01 04:37:04;;;;;;;6.67;6.20;;;10.00;81.10;;;;;;6175699;28;20232;-84
2023/09/01 04:40:09;;;;;;;6.17;5.93;;;10.10;81.00;;;;;;6179689;28;20243;-77
2023/09/01 04:43:13;;;;;;;7.27;6.70;;;10.10;80.90;;;;;;6189008;28;20767;-79
2023/09/01 04:46:16;;;;;;;7.13;6.77;;;10.10;81.20;;;;;;6184287;28;20247;-85
2023/09/01 04:49:20;;;;;;;6.43;6.10;;;10.10;81.20;;;;;;6189309;28;20237;-86
2023/09/01 04:52:24;;;;;;;6.60;6.30;;;10.20;80.90;;;;;;6187391;28;20753;-82
2023/09/01 04:55:44;;;;;;;6.10;5.80;;;10.20;81.00;;;;;;6193607;28;20553;-86
2023/09/01 04:58:49;;;;;;;6.47;6.27;;;10.20;80.90;;;;;;6189103;28;20327;-83
2023/09/01 05:01:52;;;;;;;6.87;6.47;;;10.30;80.80;;;;;;6186754;28;20236;-85
2023/09/01 05:04:55;;;;;;;6.87;6.60;;;10.30;80.80;;;;;;6192738;28;21005;-84
2023/09/01 05:07:59;;;;;;;7.57;7.00;;;10.30;80.80;;;;;;6192017;28;20270;-79
2023/09/01 05:11:02;;;;;;;8.20;6.87;;;10.30;80.80;;;;;;6201425;28;20290;-84
2023/09/01 05:14:06;;;;;;;7.30;6.90;;;10.30;80.70;;;;;;6191316;28;20234;-82
2023/09/01 05:17:09;;;;;;;7.00;6.60;;;10.30;80.70;;;;;;6188210;28;20279;-84
2023/09/01 05:20:13;;;;;;;7.17;6.67;;;10.30;80.70;;;;;;6186918;28;20319;-85
2023/09/01 05:23:16;;;;;;;6.87;6.43;;;10.40;80.70;;;;;;6176249;28;20243;-77
2023/09/01 05:26:19;;;;;;;7.47;6.87;;;10.40;80.60;;;;;;6192917;28;20235;-77
2023/09/01 05:29:24;;;;;;;6.93;6.63;;;10.50;80.50;;;;;;6185574;28;20239;-84
2023/09/01 05:32:30;;;;;;;6.90;6.50;;;10.60;80.40;;;;;;6190559;28;20323;-84
2023/09/01 05:35:33;;;;;;;6.90;6.50;;;10.70;80.20;;;;;;6186804;28;20243;-82
2023/09/01 05:38:36;;;;;;;8.57;6.33;;;10.70;79.90;;;;;;6189158;28;20242;-81
2023/09/01 05:41:39;;;;;;;7.67;7.00;;;10.70;79.80;;;;;;6188355;28;20374;-81
2023/09/01 05:44:44;;;;;;;7.50;7.07;;;10.80;79.80;;;;;;6204857;28;20532;-84
2023/09/01 05:47:47;;;;;;;6.77;6.47;;;10.90;79.50;;;;;;6205864;28;20335;-84
2023/09/01 05:50:50;;;;;;;7.83;6.37;;;11.00;79.40;;;;;;6204973;28;20315;-86
2023/09/01 05:53:53;;;;;;;7.00;6.33;;;11.10;79.30;;;;;;6209595;28;20235;-86
2023/09/01 05:56:57;;;;;;;7.43;6.73;;;11.10;79.20;;;;;;6208924;28;20334;-86
2023/09/01 06:00:01;;;;;;;6.40;5.97;;;11.30;78.90;;;;;;6212694;28;20247;-85
2023/09/01 06:03:05;;;;;;;5.93;5.63;;;11.40;78.30;;;;;;6208183;28;20702;-84
2023/09/01 06:06:09;;;;;;;6.30;5.80;;;11.50;78.20;;;;;;6209710;28;20319;-84
2023/09/01 06:09:13;;;;;;;6.37;5.87;;;11.70;77.70;;;;;;6217931;28;20611;-85
2023/09/01 06:12:16;;;;;;;6.40;5.93;;;11.90;77.40;;;;;;6214812;28;20238;-85
2023/09/01 06:15:22;;;;;;;6.43;6.07;;;12.00;76.90;;;;;;6204300;28;20318;-85
2023/09/01 06:18:25;;;;;;;6.27;5.70;;;12.10;76.50;;;;;;6213508;28;20741;-87
2023/09/01 06:21:28;;;;;;;5.67;5.33;;;12.50;74.90;;;;;;6212273;28;20231;-83
2023/09/01 06:24:31;;;;;;;5.90;5.50;;;12.50;74.80;;;;;;6218574;28;20251;-84
2023/09/01 06:27:37;;;;;;;6.27;5.77;;;12.70;74.60;;;;;;6214538;28;20369;-85
2023/09/01 06:30:42;;;;;;;6.40;5.90;;;12.70;75.10;;;;;;6215482;28;20239;-85
2023/09/01 06:33:47;;;;;;;6.50;6.03;;;13.00;73.50;;;;;;6212634;28;20230;-86
2023/09/01 06:36:51;;;;;;;7.10;6.27;;;12.90;73.80;;;;;;6202289;28;20232;-84
2023/09/01 06:39:54;;;;;;;6.50;5.90;;;12.90;74.10;;;;;;6215848;28;20247;-84
2023/09/01 06:42:57;;;;;;;7.00;6.17;;;12.90;74.30;;;;;;6213929;28;20302;-82
2023/09/01 06:46:02;;;;;;;10.90;5.90;;;12.90;74.20;;;;;;6222234;28;20246;-82
2023/09/01 06:49:06;;;;;;;6.53;5.90;;;12.90;74.50;;;;;;6219259;28;20239;-85
2023/09/01 06:52:09;;;;;;;6.57;6.00;;;13.10;73.90;;;;;;6208691;28;20378;-86
2023/09/01 06:55:13;;;;;;;7.60;6.00;;;13.10;74.00;;;;;;6222111;28;20230;-86
2023/09/01 06:58:16;;;;;;;7.00;6.53;;;13.20;73.90;;;;;;6203033;28;20239;-87
2023/09/01 07:01:23;;;;;;;6.90;6.40;;;13.30;73.40;;;;;;6221093;28;20716;-83
2023/09/01 07:04:26;;;;;;;7.67;7.07;;;13.30;73.30;;;;;;6209113;28;20231;-83
2023/09/01 07:07:29;;;;;;;7.33;6.73;;;13.50;73.40;;;;;;6213456;28;20231;-84
2023/09/01 07:10:32;;;;;;;7.07;6.67;;;13.50;73.40;;;;;;6223674;28;20308;-85
2023/09/01 07:13:36;;;;;;;6.63;6.30;;;13.50;73.10;;;;;;6226595;28;20243;-80
2023/09/01 07:16:40;;;;;;;6.80;6.20;;;13.60;73.00;;;;;;6215567;28;20248;-84
2023/09/01 07:19:43;;;;;;;11.53;6.83;;;13.60;73.00;;;;;;6216681;28;20913;-82
2023/09/01 07:22:46;;;;;;;6.80;6.20;;;13.70;73.30;;;;;;6216747;28;20235;-85
2023/09/01 07:25:49;;;;;;;6.73;6.20;;;13.90;73.20;;;;;;6228496;28;20336;-86
2023/09/01 07:28:52;;;;;;;6.40;6.00;;;14.00;72.60;;;;;;6210253;28;20235;-82
2023/09/01 07:31:59;;;;;;;6.80;6.20;;;14.10;72.70;;;;;;6210649;28;20859;-82
2023/09/01 07:35:03;;;;;;;6.87;6.27;;;14.20;72.40;;;;;;6211953;28;20259;-85
2023/09/01 07:38:06;;;;;;;6.50;5.90;;;14.30;72.60;;;;;;6200248;28;20235;-83
2023/09/01 07:41:09;;;;;;;7.40;5.77;;;14.50;71.80;;;;;;6207818;28;20230;-83
2023/09/01 07:44:16;;;;;;;6.87;6.20;;;14.60;72.10;;;;;;6206765;28;20731;-84
2023/09/01 07:47:21;;;;;;;6.60;5.70;;;14.70;71.50;;;;;;6217046;28;20731;-84
2023/09/01 07:50:30;;;;;;;6.50;5.40;;;14.80;71.50;;;;;;6224134;28;20242;-85
2023/09/01 07:53:33;;;;;;;6.23;5.63;;;15.00;71.80;;;;;;6215753;28;20282;-80
2023/09/01 07:56:36;;;;;;;6.67;6.23;;;15.00;71.10;;;;;;6213228;28;20246;-84
2023/09/01 07:59:40;;;;;;;6.60;5.43;;;15.00;70.90;;;;;;6219020;28;20251;-84
2023/09/01 08:02:44;;;;;;;6.03;5.57;;;15.20;71.10;;;;;;6217536;28;20245;-83
2023/09/01 08:05:48;;;;;;;6.93;5.43;;;15.40;70.80;;;;;;6208597;28;20250;-86
2023/09/01 08:08:51;;;;;;;5.20;4.80;;;15.60;70.80;;;;;;6206998;28;20251;-81
2023/09/01 08:11:55;;;;;;;5.80;5.33;;;15.80;70.50;;;;;;6203562;28;20285;-83
2023/09/01 08:14:58;;;;;;;5.77;5.30;;;15.90;69.70;;;;;;6217497;28;20845;-82
2023/09/01 08:18:03;;;;;;;6.10;5.50;;;16.00;69.30;;;;;;6214566;28;20235;-82
2023/09/01 08:21:06;;;;;;;5.63;5.00;;;16.00;68.50;;;;;;6209985;28;20334;-81
2023/09/01 08:24:10;;;;;;;6.93;5.67;;;16.00;68.10;;;;;;6208043;28;20621;-81
2023/09/01 08:27:13;;;;;;;7.17;6.50;;;16.00;68.30;;;;;;6217058;28;20235;-84
2023/09/01 08:30:16;;;;;;;4.57;4.40;;;16.00;68.20;;;;;;6215935;28;20272;-80
2023/09/01 08:33:21;;;;;;;5.73;4.47;;;16.10;67.70;;;;;;6212328;28;20746;-84
2023/09/01 08:36:24;;;;;;;5.30;4.73;;;16.20;67.80;;;;;;6205642;28;20617;-84
2023/09/01 08:39:27;;;;;;;5.10;4.60;;;16.40;67.80;;;;;;6199714;28;20239;-84
2023/09/01 08:42:31;;;;;;;5.40;4.73;;;16.50;67.00;;;;;;6205693;28;20282;-81
2023/09/01 08:45:34;;;;;;;4.90;4.50;;;16.60;66.70;;;;;;6208420;28;20817;-78
2023/09/01 08:48:39;;;;;;;7.97;5.00;;;16.60;66.60;;;;;;6206411;28;20236;-80
2023/09/01 08:51:43;;;;;;;5.17;4.30;;;16.70;66.00;;;;;;6206383;28;20327;-80
2023/09/01 08:54:46;;;;;;;7.03;3.80;;;16.80;65.90;;;;;;6206740;28;20723;-79
2023/09/01 08:57:50;;;;;;;3.80;3.40;;;16.80;65.40;;;;;;6209311;28;20251;-78
2023/09/01 09:00:55;;;;;;;6.47;3.90;;;16.90;65.50;;;;;;6209066;28;20252;-78
2023/09/01 09:04:01;;;;;;;5.17;3.67;;;17.00;64.70;;;;;;6211571;28;20247;-85
2023/09/01 09:07:15;;;;;;;4.10;3.90;;;17.10;64.90;;;;;;6193802;28;20232;-86
2023/09/01 09:10:19;;;;;;;3.73;3.57;;;17.20;64.10;;;;;;6212136;28;20251;-80
2023/09/01 09:13:23;;;;;;;4.07;3.70;;;17.20;63.10;;;;;;6211621;28;20289;-80
2023/09/01 09:16:26;;;;;;;4.40;3.50;;;17.20;63.60;;;;;;6212356;28;20309;-82
2023/09/01 09:19:31;;;;;;;5.43;3.60;;;17.20;63.40;;;;;;6217496;28;21026;-80
2023/09/01 09:22:50;;;;;;;3.37;3.07;;;17.20;63.30;;;;;;6205765;28;21498;-83
2023/09/01 09:26:03;;;;;;;3.10;2.63;;;17.40;63.40;;;;;;6210235;28;20235;-82
2023/09/01 09:29:08;;;;;;;3.27;3.10;;;17.60;62.90;;;;;;6212075;28;20293;-82
2023/09/01 09:32:19;;;;;;;3.20;2.90;;;17.90;62.10;;;;;;6213614;28;20243;-82
2023/09/01 09:35:26;;;;;;;3.07;2.80;;;18.00;61.00;;;;;;6213234;28;20369;-82
2023/09/01 09:38:41;;;;;;;3.23;2.93;;;18.10;61.40;;;;;;6208979;28;20239;-82
2023/09/01 09:41:46;;;;;;;3.00;2.80;;;18.20;60.20;;;;;;6200491;28;20235;-79
2023/09/01 09:44:52;;;;;;;3.30;3.10;;;18.30;60.30;;;;;;6205861;28;20351;-80
2023/09/01 09:47:57;;;;;;;3.67;3.37;;;18.50;60.00;;;;;;6213784;28;20599;-80
2023/09/01 09:51:07;;;;;;;3.90;3.70;;;18.70;59.80;;;;;;6204796;28;20228;-82
2023/09/01 09:54:11;;;;;;;5.30;3.70;;;18.80;59.10;;;;;;6233125;28;20224;-79
2023/09/01 09:57:16;;;;;;;3.50;3.30;;;18.80;58.50;;;;;;6208438;28;20363;-82
2023/09/01 10:00:22;;;;;;;3.43;3.10;;;18.80;58.80;;;;;;6207072;28;20360;-80
2023/09/01 10:03:30;;;;;;;3.50;3.20;;;18.90;58.50;;;;;;6208206;28;20264;-80
2023/09/01 10:06:36;;;;;;;3.83;3.40;;;18.50;59.10;;;;;;6212728;28;20251;-81
2023/09/01 10:09:42;;;;;;;3.40;3.13;;;18.70;58.90;;;;;;6208365;28;20492;-83
2023/09/01 10:12:45;;;;;;;3.50;3.10;;;18.60;58.20;;;;;;6187434;28;20236;-79
2023/09/01 10:15:51;;;;;;;4.00;3.07;;;18.80;58.90;;;;;;6184855;28;20364;-82
2023/09/01 10:18:55;;;;;;;4.27;3.40;;;18.80;58.20;;;;;;6195415;28;20236;-81
2023/09/01 10:21:59;;;;;;;2.73;2.60;;;18.80;57.70;;;;;;6183001;28;20314;-80
2023/09/01 10:25:15;;;;;;;5.70;2.70;;;18.90;57.90;;;;;;6185177;28;20317;-83
2023/09/01 10:28:19;;;;;;;6.90;3.23;;;18.90;57.20;;;;;;6187402;28;20347;-83
2023/09/01 10:31:27;;;;;;;5.30;3.40;;;19.10;57.80;;;;;;6177950;28;20620;-81
2023/09/01 10:34:31;;;;;;;5.77;3.17;;;19.10;57.00;;;;;;6190643;28;20235;-82
2023/09/01 10:37:36;;;;;;;2.80;2.67;;;18.80;57.30;;;;;;6184502;28;20244;-83
2023/09/01 10:40:48;;;;;;;3.07;2.83;;;18.70;57.30;;;;;;6177140;28;20243;-79
2023/09/01 10:43:56;;;;;;;3.47;3.17;;;18.70;57.50;;;;;;6181536;28;20281;-82
2023/09/01 10:47:39;;;;;;;3.10;2.90;;;18.70;57.30;;;;;;6213162;28;20318;-84
2023/09/01 10:51:17;;;;;;;3.23;3.00;;;18.70;57.70;;;;;;6212416;28;20223;-81
2023/09/01 10:54:43;;;;;;;2.93;2.73;;;18.80;57.60;;;;;;6235786;28;20232;-82
2023/09/01 10:57:49;;;;;;;8.33;7.63;;;18.90;57.10;;;;;;6208093;28;20345;-80
2023/09/01 11:00:52;;;;;;;3.70;3.37;;;19.10;56.50;;;;;;6189420;28;20670;-82
2023/09/01 11:03:56;;;;;;;4.47;3.27;;;19.20;56.40;;;;;;6181197;28;20744;-80
2023/09/01 11:07:04;;;;;;;8.33;7.50;;;19.40;56.50;;;;;;6189658;28;20244;-80
2023/09/01 11:10:09;;;;;;;3.40;3.17;;;19.50;55.50;;;;;;6199170;28;20247;-80
2023/09/01 11:13:16;;;;;;;3.33;3.13;;;19.40;55.20;;;;;;6215360;28;20227;-81
2023/09/01 11:16:19;;;;;;;3.23;3.10;;;19.60;55.20;;;;;;6215039;28;20243;-79
2023/09/01 11:19:22;;;;;;;4.17;3.77;;;19.90;55.70;;;;;;6216002;28;20318;-79
2023/09/01 11:22:26;;;;;;;3.43;3.13;;;19.90;55.40;;;;;;6215392;28;20356;-78
2023/09/01 11:25:32;;;;;;;5.27;3.30;;;19.60;55.70;;;;;;6201006;28;20241;-81
2023/09/01 11:28:35;;;;;;;3.70;3.50;;;19.60;55.30;;;;;;6198757;28;20765;-80
2023/09/01 11:31:39;;;;;;;3.87;3.57;;;19.70;55.50;;;;;;6223128;28;20242;-84
2023/09/01 11:34:42;;;;;;;3.87;3.77;;;19.70;55.90;;;;;;6206404;28;20244;-84
2023/09/01 11:37:45;;;;;;;3.57;3.30;;;20.00;56.10;;;;;;6205083;28;20382;-80
2023/09/01 11:40:51;;;;;;;3.73;3.50;;;20.30;55.60;;;;;;6209455;28;20318;-81
2023/09/01 11:43:55;;;;;;;3.40;3.23;;;20.60;54.60;;;;;;6209682;28;20229;-80
2023/09/01 11:46:58;;;;;;;3.60;3.30;;;20.30;54.80;;;;;;6200531;28;20232;-79
2023/09/01 11:50:01;;;;;;;5.13;4.73;;;20.10;54.80;;;;;;6211175;28;20247;-79
2023/09/01 11:53:04;;;;;;;3.90;3.70;;;20.00;55.00;;;;;;6214236;28;20291;-82
2023/09/01 11:56:23;;;;;;;3.47;3.27;;;20.10;55.60;;;;;;6228992;28;20303;-83
2023/09/01 11:59:27;;;;;;;3.70;3.40;;;20.00;55.30;;;;;;6214838;28;20973;-81
2023/09/01 12:02:30;;;;;;;4.17;3.80;;;20.10;55.00;;;;;;6207141;28;20246;-81
2023/09/01 12:05:35;;;;;;;3.23;3.03;;;20.30;54.50;;;;;;6224510;28;20267;-84
2023/09/01 12:08:38;;;;;;;3.57;3.40;;;20.40;55.00;;;;;;6208913;28;20747;-80
2023/09/01 12:11:56;;;;;;;3.43;3.23;;;20.70;55.50;;;;;;6219658;28;20241;-82
2023/09/01 12:15:05;;;;;;;5.60;3.97;;;20.90;53.40;;;;;;6216530;28;20240;-82
2023/09/01 12:18:33;;;;;;;4.30;4.00;;;21.00;53.50;;;;;;6214045;28;20418;-84
2023/09/01 12:21:36;;;;;;;3.47;3.23;;;21.20;53.50;;;;;;6213491;28;20224;-79
2023/09/01 12:24:50;;;;;;;3.37;2.90;;;21.10;53.70;;;;;;6227094;28;20250;-83
2023/09/01 12:27:55;;;;;;;3.90;3.60;;;21.40;54.00;;;;;;6212806;28;20228;-81
2023/09/01 12:31:00;;;;;;;3.93;3.57;;;21.40;52.90;;;;;;6214719;28;20334;-85
2023/09/01 12:34:03;;;;;;;4.23;3.93;;;21.30;53.00;;;;;;6216558;28;20231;-82
2023/09/01 12:37:07;;;;;;;4.30;3.40;;;21.10;53.50;;;;;;6206208;28;20604;-83
2023/09/01 12:40:11;;;;;;;3.33;3.07;;;21.10;53.10;;;;;;6220608;28;20462;-86
2023/09/01 12:43:16;;;;;;;3.67;3.43;;;21.10;53.30;;;;;;6215784;28;20378;-83
2023/09/01 12:46:19;;;;;;;3.20;3.10;;;21.30;53.70;;;;;;6223443;28;20246;-78
2023/09/01 12:49:23;;;;;;;3.43;3.33;;;21.50;52.70;;;;;;6227100;28;20259;-80
2023/09/01 12:52:26;;;;;;;7.43;3.80;;;21.40;52.60;;;;;;6233046;28;20227;-83
2023/09/01 12:55:29;;;;;;;3.30;3.10;;;21.40;52.40;;;;;;6219567;28;20310;-82
2023/09/01 12:58:37;;;;;;;3.83;3.57;;;21.50;52.70;;;;;;6214102;28;20254;-82
2023/09/01 13:01:40;;;;;;;3.47;3.20;;;21.50;52.40;;;;;;6213574;28;20301;-83
2023/09/01 13:04:43;;;;;;;3.83;3.37;;;21.50;52.90;;;;;;6211367;28;20288;-80
2023/09/01 13:07:47;;;;;;;3.80;3.60;;;21.50;51.50;;;;;;6217916;28;20239;-82
2023/09/01 13:10:50;;;;;;;3.90;3.60;;;21.50;51.80;;;;;;6210318;28;20317;-82
2023/09/01 13:13:54;;;;;;;4.60;3.70;;;21.50;52.20;;;;;;6211155;28;20343;-80
2023/09/01 13:16:57;;;;;;;4.20;3.90;;;21.50;52.00;;;;;;6215733;28;20586;-82
2023/09/01 13:20:03;;;;;;;4.90;4.50;;;21.70;52.10;;;;;;6216322;28;20737;-81
2023/09/01 13:23:09;;;;;;;4.43;4.13;;;21.60;51.60;;;;;;6218483;28;20243;-80
2023/09/01 13:26:12;;;;;;;3.30;3.10;;;21.10;52.50;;;;;;6216935;28;20722;-83
2023/09/01 13:29:16;;;;;;;4.00;3.70;;;21.10;52.70;;;;;;6216650;28;20239;-82
2023/09/01 13:32:19;;;;;;;3.97;3.73;;;21.10;52.20;;;;;;6203280;28;20329;-80
2023/09/01 13:35:23;;;;;;;3.90;3.80;;;21.20;53.10;;;;;;6210829;28;20710;-82
2023/09/01 13:38:26;;;;;;;3.47;3.27;;;21.30;52.00;;;;;;6209080;28;20254;-80
2023/09/01 13:41:29;;;;;;;4.97;4.33;;;21.30;52.80;;;;;;6210226;28;20640;-81
2023/09/01 13:44:34;;;;;;;4.97;3.87;;;21.30;52.60;;;;;;6214152;28;20861;-84
2023/09/01 13:47:37;;;;;;;3.80;3.53;;;21.10;53.10;;;;;;6221358;28;20301;-81
2023/09/01 13:50:45;;;;;;;3.43;3.13;;;20.90;53.50;;;;;;6212410;28;20377;-85
2023/09/01 13:53:48;;;;;;;3.73;3.53;;;21.10;53.80;;;;;;6197009;28;20243;-81
2023/09/01 13:56:51;;;;;;;7.57;3.93;;;21.00;53.90;;;;;;6205721;28;20661;-83
2023/09/01 13:59:56;;;;;;;3.40;3.30;;;21.10;52.90;;;;;;6209391;28;20298;-84
2023/09/01 14:02:59;;;;;;;3.60;3.37;;;21.00;52.60;;;;;;6194452;28;20854;-86
2023/09/01 14:06:03;;;;;;;3.13;3.10;;;21.00;53.10;;;;;;6201404;28;20236;-85
2023/09/01 14:13:25;;;;;;;3.97;3.80;;;20.80;53.50;;;;;;6122917;28;20234;-83
2023/09/01 14:16:30;;;;;;;3.53;3.43;;;20.60;53.50;;;;;;6210445;28;20242;-81
2023/09/01 14:19:35;;;;;;;4.13;3.83;;;20.80;54.00;;;;;;6208190;28;20258;-83
2023/09/01 14:22:39;;;;;;;3.10;2.77;;;21.00;53.30;;;;;;6205535;28;20247;-82
2023/09/01 14:26:25;;;;;;;;;;;;;;;;;;;;;
2023/09/01 14:29:43;;;;;;;4.43;4.13;;;21.10;53.10;;;;;;6201712;28;20270;-83
2023/09/01 14:32:51;;;;;;;4.50;3.97;;;21.10;53.40;;;;;;6211095;28;20315;-86
2023/09/01 14:36:08;;;;;;;4.00;3.70;;;21.10;51.80;;;;;;6213150;28;20243;-85
2023/09/01 14:39:12;;;;;;;3.73;3.43;;;21.10;52.90;;;;;;6212014;28;20242;-84
2023/09/01 14:42:16;;;;;;;5.20;4.03;;;21.20;52.90;;;;;;6212048;28;20866;-84
2023/09/01 14:45:19;;;;;;;3.87;3.67;;;21.00;53.00;;;;;;6209141;28;20227;-85
2023/09/01 14:48:26;;;;;;;4.73;4.23;;;20.90;54.00;;;;;;6201438;28;20316;-83
2023/09/01 14:51:30;;;;;;;3.53;3.43;;;20.70;53.70;;;;;;6219265;28;20240;-84
2023/09/01 14:54:33;;;;;;;3.90;3.60;;;20.70;54.10;;;;;;6210961;28;20234;-85
2023/09/01 14:57:39;;;;;;;6.47;4.20;;;20.70;54.50;;;;;;6209000;28;20747;-83
2023/09/01 15:00:42;;;;;;;4.20;4.00;;;20.60;53.70;;;;;;6216463;28;20223;-81
2023/09/01 15:03:47;;;;;;;3.57;3.37;;;20.50;54.50;;;;;;6211186;28;20234;-82
2023/09/01 15:06:51;;;;;;;4.00;3.80;;;20.40;54.00;;;;;;6208179;28;20322;-84
2023/09/01 15:09:55;;;;;;;3.80;3.20;;;20.40;54.70;;;;;;6207419;28;20250;-82
2023/09/01 15:13:16;;;;;;;3.87;3.60;;;20.40;55.00;;;;;;6218264;28;20378;-84
2023/09/01 15:16:20;;;;;;;4.60;4.30;;;20.40;55.10;;;;;;6203342;28;20263;-82
2023/09/01 15:19:27;;;;;;;3.50;3.40;;;20.30;54.80;;;;;;6201617;28;20247;-82
2023/09/01 15:22:31;;;;;;;3.37;3.23;;;20.30;55.30;;;;;;6213357;28;20235;-82
2023/09/01 15:25:36;;;;;;;4.37;4.17;;;20.30;55.10;;;;;;6217200;28;20263;-85
2023/09/01 15:28:39;;;;;;;5.00;4.50;;;20.40;55.50;;;;;;6205766;28;20666;-84
2023/09/01 15:31:43;;;;;;;5.10;4.80;;;20.30;55.50;;;;;;6208699;28;20260;-83
2023/09/01 15:34:47;;;;;;;5.13;3.90;;;20.30;56.00;;;;;;6205337;28;20316;-83
2023/09/01 15:38:05;;;;;;;3.63;3.53;;;20.20;55.70;;;;;;6205860;28;20232;-84
2023/09/01 15:41:09;;;;;;;4.27;4.00;;;20.30;56.10;;;;;;6196376;28;20235;-84
2023/09/01 15:44:14;;;;;;;3.77;3.57;;;20.30;55.00;;;;;;6211253;28;20227;-83
2023/09/01 15:47:18;;;;;;;4.00;3.77;;;20.10;55.50;;;;;;6206461;28;20723;-83
2023/09/01 15:50:23;;;;;;;4.60;4.20;;;20.10;56.60;;;;;;6189104;28;20755;-83
2023/09/01 15:53:41;;;;;;;4.63;4.23;;;20.00;56.40;;;;;;6174616;28;20236;-82
2023/09/01 15:56:44;;;;;;;4.43;4.20;;;20.00;56.40;;;;;;6197547;28;20240;-83
2023/09/01 15:59:47;;;;;;;5.07;4.40;;;20.00;56.00;;;;;;6188470;28;20255;-82
2023/09/01 16:02:53;;;;;;;4.00;3.80;;;20.00;56.10;;;;;;6205463;28;20325;-84
2023/09/01 16:05:59;;;;;;;4.47;4.10;;;20.00;56.10;;;;;;6202123;28;20295;-81
2023/09/01 16:09:03;;;;;;;4.93;4.57;;;20.00;56.50;;;;;;6215048;28;20823;-81
2023/09/01 16:12:07;;;;;;;4.40;4.10;;;20.00;56.40;;;;;;6205741;28;20228;-81